Time;durP1;ratioP1;P1;durP2;ratioP2;P2;SDS_P1;SDS_P2;PMS_P1;PMS_P2;Temp;Humidity;BMP_temperature;BMP_pressure;BME280_temperature;BME280_humidity;BME280_pressure;Samples;Min_cycle;Max_cycle;Signal;HPM_P1;HPM_P2
2021/12/19 00:09:55;;;;;;;37.42;14.23;;;;;;;;;;5082896;27;92922;-73
2021/12/19 00:12:22;;;;;;;37.95;15.32;;;;;;;;;;5077552;27;92374;-73
2021/12/19 00:14:49;;;;;;;39.30;15.93;;;;;;;;;;5077516;27;92615;-72
2021/12/19 00:17:15;;;;;;;34.08;14.68;;;;;;;;;;5077569;27;93710;-73
2021/12/19 00:19:42;;;;;;;45.78;15.75;;;;;;;;;;5080343;27;92305;-73
2021/12/19 00:22:08;;;;;;;43.08;15.95;;;;;;;;;;5077239;27;93498;-73
2021/12/19 00:24:34;;;;;;;40.58;15.77;;;;;;;;;;5077881;27;91388;-73
2021/12/19 00:27:01;;;;;;;38.90;15.27;;;;;;;;;;5076583;27;92549;-73
2021/12/19 00:29:27;;;;;;;39.03;14.73;;;;;;;;;;5077077;27;93914;-73
2021/12/19 00:31:54;;;;;;;42.70;15.80;;;;;;;;;;5075510;27;94669;-72
2021/12/19 00:34:20;;;;;;;40.45;16.23;;;;;;;;;;5076627;27;96069;-73
2021/12/19 00:36:46;;;;;;;49.15;16.65;;;;;;;;;;5077188;27;93581;-73
2021/12/19 00:39:13;;;;;;;53.63;15.75;;;;;;;;;;5077302;27;92332;-73
2021/12/19 00:41:39;;;;;;;41.58;16.20;;;;;;;;;;5080191;27;93403;-72
2021/12/19 00:44:08;;;;;;;40.40;15.93;;;;;;;;;;5058999;27;92156;-73
2021/12/19 00:46:43;;;;;;;46.58;15.93;;;;;;;;;;5077302;27;93205;-73
2021/12/19 00:49:11;;;;;;;38.33;14.95;;;;;;;;;;5058573;27;95543;-73
2021/12/19 00:51:38;;;;;;;61.42;15.85;;;;;;;;;;5076561;27;92330;-73
2021/12/19 00:54:09;;;;;;;40.55;15.18;;;;;;;;;;5077058;27;93482;-73
2021/12/19 00:56:36;;;;;;;43.60;15.47;;;;;;;;;;5073813;27;96501;-73
2021/12/19 00:59:03;;;;;;;45.15;15.52;;;;;;;;;;5076886;27;92163;-73
2021/12/19 01:01:30;;;;;;;41.88;15.65;;;;;;;;;;5079203;27;92565;-73
2021/12/19 01:03:56;;;;;;;42.00;14.98;;;;;;;;;;5076622;27;92205;-73
2021/12/19 01:06:23;;;;;;;47.65;15.93;;;;;;;;;;5076538;27;93447;-73
2021/12/19 01:08:50;;;;;;;54.70;15.60;;;;;;;;;;5076567;27;93285;-73
2021/12/19 01:11:16;;;;;;;54.95;15.63;;;;;;;;;;5076085;27;92277;-73
2021/12/19 01:13:43;;;;;;;59.38;15.50;;;;;;;;;;5076970;27;93450;-73
2021/12/19 01:16:09;;;;;;;51.22;15.07;;;;;;;;;;5057728;27;94459;-73
2021/12/19 01:18:35;;;;;;;44.25;14.43;;;;;;;;;;5076755;27;92595;-73
2021/12/19 01:21:02;;;;;;;43.63;14.57;;;;;;;;;;5075193;27;94710;-73
2021/12/19 01:23:28;;;;;;;46.97;15.15;;;;;;;;;;5079672;27;93543;-73
2021/12/19 01:25:54;;;;;;;37.75;15.52;;;;;;;;;;5076552;27;93199;-73
2021/12/19 01:28:21;;;;;;;35.08;14.90;;;;;;;;;;5076402;27;93496;-72
2021/12/19 01:30:47;;;;;;;48.88;15.35;;;;;;;;;;5075946;27;92818;-73
2021/12/19 01:33:14;;;;;;;53.17;14.52;;;;;;;;;;5076447;27;93080;-73
2021/12/19 01:35:40;;;;;;;37.63;14.43;;;;;;;;;;5076396;27;93725;-73
2021/12/19 01:38:07;;;;;;;37.08;13.27;;;;;;;;;;5079750;27;91475;-73
2021/12/19 01:40:51;;;;;;;31.20;13.65;;;;;;;;;;5076814;27;92187;-73
2021/12/19 01:43:25;;;;;;;35.80;13.88;;;;;;;;;;5079614;27;92877;-73
2021/12/19 01:45:52;;;;;;;34.35;14.45;;;;;;;;;;5081710;27;94665;-73
2021/12/19 01:48:19;;;;;;;48.85;14.70;;;;;;;;;;5061806;27;93630;-73
2021/12/19 01:50:46;;;;;;;41.35;13.65;;;;;;;;;;5077931;27;92538;-73
2021/12/19 01:53:13;;;;;;;37.55;14.43;;;;;;;;;;5079688;27;93424;-73
2021/12/19 01:55:41;;;;;;;33.00;14.95;;;;;;;;;;5079191;27;93955;-73
2021/12/19 01:58:07;;;;;;;36.20;13.90;;;;;;;;;;5079395;27;92296;-73
2021/12/19 02:00:39;;;;;;;47.65;15.10;;;;;;;;;;5079654;27;93519;-73
2021/12/19 02:03:07;;;;;;;65.75;16.17;;;;;;;;;;5079960;27;92208;-72
2021/12/19 02:05:33;;;;;;;45.42;14.48;;;;;;;;;;5079753;27;92329;-73
2021/12/19 02:08:00;;;;;;;45.28;15.52;;;;;;;;;;5082426;27;93544;-72
2021/12/19 02:10:27;;;;;;;31.25;13.25;;;;;;;;;;5077283;27;94745;-73
2021/12/19 02:12:54;;;;;;;26.88;11.88;;;;;;;;;;5060784;27;97836;-73
2021/12/19 02:15:22;;;;;;;25.60;11.88;;;;;;;;;;5078891;27;93087;-73
2021/12/19 02:17:50;;;;;;;25.48;11.50;;;;;;;;;;5079375;27;92383;-72
2021/12/19 02:20:17;;;;;;;21.95;10.63;;;;;;;;;;5079198;27;93398;-73
2021/12/19 02:22:44;;;;;;;25.15;11.80;;;;;;;;;;5079057;27;93688;-74
2021/12/19 02:25:11;;;;;;;22.73;11.25;;;;;;;;;;5060723;27;93276;-73
2021/12/19 02:27:37;;;;;;;23.67;11.50;;;;;;;;;;5079499;27;93579;-73
2021/12/19 02:30:07;;;;;;;24.75;11.48;;;;;;;;;;5081702;27;93559;-73
2021/12/19 02:32:35;;;;;;;25.52;11.90;;;;;;;;;;5078999;27;93507;-73
2021/12/19 02:35:05;;;;;;;30.05;12.00;;;;;;;;;;5077180;27;95972;-73
2021/12/19 02:40:22;;;;;;;32.55;12.90;;;;;;;;;;5078858;27;93454;-73
2021/12/19 02:48:10;;;;;;;28.20;12.55;;;;;;;;;;5078965;27;92315;-73
2021/12/19 02:48:26;;;;;;;;;;;;;;;;;;5078629;27;93268;-73
2021/12/19 02:50:54;;;;;;;28.65;12.07;;;;;;;;;;5078290;27;122526;-73
2021/12/19 02:53:31;;;;;;;25.77;11.93;;;;;;;;;;5081273;27;91799;-73
2021/12/19 02:55:58;;;;;;;29.48;13.63;;;;;;;;;;5078788;27;93625;-73
2021/12/19 02:58:25;;;;;;;32.53;13.77;;;;;;;;;;5078271;27;93338;-73
2021/12/19 03:00:51;;;;;;;31.83;13.68;;;;;;;;;;5077113;27;94844;-72
2021/12/19 03:03:18;;;;;;;33.17;13.40;;;;;;;;;;5060470;27;93884;-73
2021/12/19 03:05:45;;;;;;;34.17;13.70;;;;;;;;;;5078503;27;92305;-73
2021/12/19 03:08:12;;;;;;;31.67;14.68;;;;;;;;;;5078611;27;92173;-73
2021/12/19 03:13:23;;;;;;;33.08;14.95;;;;;;;;;;5081004;27;92182;-73
2021/12/19 03:18:35;;;;;;;33.17;13.68;;;;;;;;;;5078904;27;91587;-72
2021/12/19 03:21:01;;;;;;;25.38;13.40;;;;;;;;;;5078618;27;93181;-72
2021/12/19 03:23:29;;;;;;;27.92;12.88;;;;;;;;;;5077706;27;94070;-72
2021/12/19 03:25:55;;;;;;;26.70;13.27;;;;;;;;;;5076537;27;95444;-73
2021/12/19 03:28:22;;;;;;;27.75;11.93;;;;;;;;;;5077958;27;95422;-73
2021/12/19 03:30:48;;;;;;;28.80;11.25;;;;;;;;;;5077871;27;93228;-72
2021/12/19 03:33:15;;;;;;;37.33;11.60;;;;;;;;;;5078033;27;92290;-73
2021/12/19 03:35:41;;;;;;;22.42;9.98;;;;;;;;;;5081076;27;93558;-73
2021/12/19 03:38:09;;;;;;;24.33;9.80;;;;;;;;;;5077609;27;92326;-72
2021/12/19 03:40:37;;;;;;;15.77;7.32;;;;;;;;;;5083218;27;93952;-73
2021/12/19 03:43:05;;;;;;;20.23;8.38;;;;;;;;;;5086975;27;92933;-72
2021/12/19 03:45:32;;;;;;;16.63;8.00;;;;;;;;;;5082286;27;92254;-72
2021/12/19 03:47:59;;;;;;;21.80;8.18;;;;;;;;;;5079394;27;93216;-72
2021/12/19 03:50:25;;;;;;;21.77;7.80;;;;;;;;;;5058310;27;96031;-73
2021/12/19 03:52:52;;;;;;;22.25;8.25;;;;;;;;;;5077251;27;93136;-73
2021/12/19 03:55:20;;;;;;;16.38;7.75;;;;;;;;;;5078815;27;92709;-73
2021/12/19 03:57:47;;;;;;;17.75;7.25;;;;;;;;;;5081321;27;93710;-73
2021/12/19 04:00:16;;;;;;;20.23;7.43;;;;;;;;;;5077319;27;93586;-72
2021/12/19 04:02:43;;;;;;;15.90;6.63;;;;;;;;;;5078390;27;93132;-73
2021/12/19 04:05:09;;;;;;;20.23;7.13;;;;;;;;;;5078034;27;92269;-73
2021/12/19 04:07:36;;;;;;;16.85;6.15;;;;;;;;;;5078652;27;92911;-73
2021/12/19 04:10:02;;;;;;;22.88;6.40;;;;;;;;;;5078372;27;94049;-73
2021/12/19 04:12:30;;;;;;;15.05;6.70;;;;;;;;;;5059768;27;92385;-73
2021/12/19 04:14:56;;;;;;;15.50;6.40;;;;;;;;;;5077034;27;94591;-73
2021/12/19 04:17:22;;;;;;;18.38;6.85;;;;;;;;;;5059831;27;94760;-73
2021/12/19 04:19:49;;;;;;;17.83;6.68;;;;;;;;;;5081003;27;92377;-73
2021/12/19 04:22:16;;;;;;;14.75;6.50;;;;;;;;;;5077790;27;93795;-73
2021/12/19 04:24:42;;;;;;;17.77;6.63;;;;;;;;;;5078156;27;92733;-73
2021/12/19 04:27:08;;;;;;;24.60;6.70;;;;;;;;;;5078198;27;93559;-73
2021/12/19 04:29:35;;;;;;;21.42;7.18;;;;;;;;;;5077892;27;93028;-73
2021/12/19 04:32:01;;;;;;;17.52;6.93;;;;;;;;;;5078779;27;92562;-72
2021/12/19 04:34:28;;;;;;;16.88;6.97;;;;;;;;;;5077772;27;92567;-73
2021/12/19 04:37:02;;;;;;;23.20;8.25;;;;;;;;;;5077709;27;92394;-73
2021/12/19 04:39:38;;;;;;;24.65;8.20;;;;;;;;;;5076171;27;94756;-73
2021/12/19 04:58:23;;;;;;;18.95;8.07;;;;;;;;;;5078355;27;92171;-73
2021/12/19 05:06:14;;;;;;;22.42;9.63;;;;;;;;;;5075270;27;94689;-72
2021/12/19 05:16:39;;;;;;;26.52;10.15;;;;;;;;;;5081105;27;93490;-72
2021/12/19 05:19:29;;;;;;;27.42;10.00;;;;;;;;;;5080214;27;93596;-72
2021/12/19 05:21:59;;;;;;;29.42;10.65;;;;;;;;;;5080201;27;92252;-72
2021/12/19 05:24:46;;;;;;;28.30;10.35;;;;;;;;;;5080151;27;93409;-73
2021/12/19 05:27:12;;;;;;;24.40;9.88;;;;;;;;;;5083297;27;93851;-72
2021/12/19 05:29:39;;;;;;;26.38;10.30;;;;;;;;;;5080848;27;92960;-72
2021/12/19 05:32:06;;;;;;;23.90;9.98;;;;;;;;;;5078175;27;96075;-72
2021/12/19 05:34:32;;;;;;;22.08;9.30;;;;;;;;;;5062035;27;92286;-73
2021/12/19 05:45:14;;;;;;;11.90;6.90;;;;;;;;;;5080208;27;93390;-73
2021/12/19 05:47:42;;;;;;;10.55;5.60;;;;;;;;;;5080353;27;92673;-72
2021/12/19 05:50:09;;;;;;;9.13;4.55;;;;;;;;;;5084398;27;91386;-72
2021/12/19 05:52:36;;;;;;;9.02;4.10;;;;;;;;;;5080260;27;93746;-72
2021/12/19 05:55:03;;;;;;;5.68;3.30;;;;;;;;;;5062275;27;92449;-72
2021/12/19 05:57:29;;;;;;;3.58;2.47;;;;;;;;;;5078824;27;94677;-72
2021/12/19 05:59:55;;;;;;;4.38;2.60;;;;;;;;;;5079810;27;92645;-73
2021/12/19 06:02:22;;;;;;;2.63;2.03;;;;;;;;;;5080416;27;92289;-73
2021/12/19 06:04:48;;;;;;;3.25;2.25;;;;;;;;;;5080338;27;92784;-72
2021/12/19 06:07:14;;;;;;;5.90;2.22;;;;;;;;;;5080075;27;93560;-72
2021/12/19 06:09:41;;;;;;;3.05;2.20;;;;;;;;;;5080342;27;92273;-72
2021/12/19 06:12:07;;;;;;;3.53;2.38;;;;;;;;;;5082783;27;93410;-72
2021/12/19 06:14:34;;;;;;;3.17;1.95;;;;;;;;;;5080543;27;91598;-72
2021/12/19 06:17:01;;;;;;;2.53;2.17;;;;;;;;;;5080243;27;92768;-72
2021/12/19 06:19:27;;;;;;;4.43;2.20;;;;;;;;;;5079846;27;93681;-73
2021/12/19 06:21:54;;;;;;;4.15;2.13;;;;;;;;;;5078615;27;94610;-72
2021/12/19 06:24:20;;;;;;;3.53;1.77;;;;;;;;;;5078897;27;95883;-72
2021/12/19 06:26:47;;;;;;;3.72;2.00;;;;;;;;;;5079635;27;93016;-73
2021/12/19 06:29:13;;;;;;;4.43;2.13;;;;;;;;;;5079243;27;92261;-73
2021/12/19 06:31:39;;;;;;;2.80;1.92;;;;;;;;;;5079644;27;92756;-72
2021/12/19 06:34:06;;;;;;;2.20;1.55;;;;;;;;;;5064619;27;94426;-72
2021/12/19 06:36:32;;;;;;;2.97;1.83;;;;;;;;;;5061199;27;93598;-72
2021/12/19 06:38:58;;;;;;;5.68;2.00;;;;;;;;;;5080265;27;92225;-72
2021/12/19 06:41:25;;;;;;;6.10;2.00;;;;;;;;;;5079788;27;92354;-72
2021/12/19 06:43:51;;;;;;;4.13;2.20;;;;;;;;;;5079429;27;92868;-73
2021/12/19 06:46:18;;;;;;;3.80;2.15;;;;;;;;;;5077848;27;95410;-73
2021/12/19 06:48:45;;;;;;;2.80;2.05;;;;;;;;;;5061667;27;92206;-73
2021/12/19 06:51:11;;;;;;;2.67;2.10;;;;;;;;;;5079661;27;93296;-72
2021/12/19 06:53:37;;;;;;;3.30;2.30;;;;;;;;;;5079444;27;93333;-73
2021/12/19 06:56:04;;;;;;;3.72;2.30;;;;;;;;;;5082583;27;92137;-73
2021/12/19 06:58:30;;;;;;;7.07;2.45;;;;;;;;;;5079125;27;93368;-73
2021/12/19 07:00:56;;;;;;;3.08;2.20;;;;;;;;;;5079160;27;92243;-73
2021/12/19 07:03:24;;;;;;;2.22;2.00;;;;;;;;;;5078862;27;93393;-72
2021/12/19 07:05:51;;;;;;;3.50;2.08;;;;;;;;;;5060328;27;96002;-73
2021/12/19 07:08:17;;;;;;;3.15;2.17;;;;;;;;;;5079666;27;92311;-73
2021/12/19 07:10:43;;;;;;;4.22;2.03;;;;;;;;;;5077587;27;94707;-73
2021/12/19 07:13:10;;;;;;;2.22;1.63;;;;;;;;;;5060135;27;95618;-73
2021/12/19 07:15:36;;;;;;;4.57;1.90;;;;;;;;;;5082546;27;92265;-72
2021/12/19 07:18:04;;;;;;;4.95;1.83;;;;;;;;;;5079408;27;93835;-72
2021/12/19 07:20:31;;;;;;;2.55;1.65;;;;;;;;;;5079343;27;92278;-73
2021/12/19 07:22:57;;;;;;;2.40;2.05;;;;;;;;;;5079093;27;93660;-73
2021/12/19 07:25:24;;;;;;;1.77;1.50;;;;;;;;;;5084715;27;92467;-76
2021/12/19 07:27:51;;;;;;;1.58;1.48;;;;;;;;;;5067015;27;92064;-75
2021/12/19 07:30:17;;;;;;;1.88;1.55;;;;;;;;;;5084006;27;92418;-75
2021/12/19 07:32:44;;;;;;;1.40;1.30;;;;;;;;;;5082418;27;92317;-75
2021/12/19 07:35:20;;;;;;;1.35;1.15;;;;;;;;;;5077283;27;94663;-75
2021/12/19 07:37:49;;;;;;;1.77;1.30;;;;;;;;;;5081807;27;96127;-73
2021/12/19 07:40:17;;;;;;;1.35;1.15;;;;;;;;;;5078478;27;93392;-73
2021/12/19 07:42:44;;;;;;;1.40;1.23;;;;;;;;;;5078895;27;92292;-72
2021/12/19 07:45:12;;;;;;;1.77;1.25;;;;;;;;;;5078429;27;93665;-73
2021/12/19 07:47:39;;;;;;;1.67;1.42;;;;;;;;;;5078656;27;93061;-73
2021/12/19 07:50:06;;;;;;;1.92;1.40;;;;;;;;;;5078527;27;93494;-74
2021/12/19 07:52:33;;;;;;;2.20;1.30;;;;;;;;;;5077253;27;93102;-73
2021/12/19 07:54:59;;;;;;;2.08;1.40;;;;;;;;;;5078786;27;92368;-74
2021/12/19 07:57:25;;;;;;;4.00;1.40;;;;;;;;;;5078683;27;93471;-73
2021/12/19 07:59:52;;;;;;;3.50;1.50;;;;;;;;;;5082253;27;95627;-73
2021/12/19 08:02:18;;;;;;;1.90;1.60;;;;;;;;;;5098839;27;94956;-74
2021/12/19 08:04:44;;;;;;;3.38;1.65;;;;;;;;;;5099064;27;93598;-73
2021/12/19 08:07:12;;;;;;;2.10;1.92;;;;;;;;;;5098806;27;92361;-74
2021/12/19 08:09:56;;;;;;;3.17;1.73;;;;;;;;;;5099046;27;92600;-72
2021/12/19 08:12:23;;;;;;;2.03;1.55;;;;;;;;;;5098249;27;93689;-73
2021/12/19 08:14:49;;;;;;;3.63;1.88;;;;;;;;;;5098621;27;93410;-74
2021/12/19 08:17:17;;;;;;;2.40;1.52;;;;;;;;;;5099439;27;93338;-74
2021/12/19 08:19:44;;;;;;;1.25;1.20;;;;;;;;;;5098173;27;93618;-73
2021/12/19 08:22:13;;;;;;;1.42;1.20;;;;;;;;;;5101893;27;92177;-73
2021/12/19 08:24:39;;;;;;;1.40;1.30;;;;;;;;;;5096790;27;94693;-72
2021/12/19 08:27:06;;;;;;;2.10;1.55;;;;;;;;;;5097902;27;92824;-73
2021/12/19 08:29:32;;;;;;;1.38;1.20;;;;;;;;;;5098687;27;93258;-72
2021/12/19 08:31:59;;;;;;;1.55;1.33;;;;;;;;;;5098116;27;92667;-72
2021/12/19 08:34:25;;;;;;;2.55;1.42;;;;;;;;;;5098563;27;92278;-71
2021/12/19 08:36:51;;;;;;;1.90;1.20;;;;;;;;;;5098193;27;93652;-71
2021/12/19 08:39:18;;;;;;;1.15;1.10;;;;;;;;;;5098374;27;94171;-72
2021/12/19 08:41:44;;;;;;;1.92;1.23;;;;;;;;;;5098803;27;91634;-71
2021/12/19 08:44:10;;;;;;;1.38;1.02;;;;;;;;;;5101449;27;92602;-72
2021/12/19 08:46:38;;;;;;;3.40;1.20;;;;;;;;;;5099005;27;92347;-72
2021/12/19 08:49:05;;;;;;;2.90;1.20;;;;;;;;;;5100451;27;94672;-72
2021/12/19 08:51:32;;;;;;;1.30;1.20;;;;;;;;;;5101782;27;94006;-71
2021/12/19 08:54:01;;;;;;;1.15;1.00;;;;;;;;;;5101803;27;92275;-71
2021/12/19 08:56:28;;;;;;;2.15;1.20;;;;;;;;;;5102118;27;93326;-71
2021/12/19 08:58:55;;;;;;;2.95;1.30;;;;;;;;;;5101941;27;93605;-72
2021/12/19 09:01:22;;;;;;;1.88;1.30;;;;;;;;;;5101695;27;92341;-72
2021/12/19 09:03:48;;;;;;;1.60;1.42;;;;;;;;;;5101904;27;93393;-71
2021/12/19 09:06:15;;;;;;;2.95;1.48;;;;;;;;;;5105311;27;92378;-71
2021/12/19 09:08:41;;;;;;;3.28;1.98;;;;;;;;;;5102182;27;92753;-71
2021/12/19 09:11:07;;;;;;;1.90;1.80;;;;;;;;;;5101506;27;93554;-72
2021/12/19 09:13:34;;;;;;;5.07;1.73;;;;;;;;;;5099942;27;94569;-71
2021/12/19 09:16:00;;;;;;;2.42;1.90;;;;;;;;;;5100967;27;96255;-72
2021/12/19 09:18:28;;;;;;;5.45;1.83;;;;;;;;;;5097957;27;93679;-71
2021/12/19 09:20:55;;;;;;;2.40;2.05;;;;;;;;;;5101681;27;92222;-71
2021/12/19 09:23:21;;;;;;;5.15;1.92;;;;;;;;;;5101339;27;93026;-71
2021/12/19 09:25:48;;;;;;;2.60;2.10;;;;;;;;;;5103951;27;93179;-71
2021/12/19 09:28:15;;;;;;;5.35;2.22;;;;;;;;;;5101162;27;93472;-71
2021/12/19 09:30:41;;;;;;;3.75;2.45;;;;;;;;;;5101621;27;93293;-70
2021/12/19 09:33:08;;;;;;;2.50;2.28;;;;;;;;;;5101432;27;92354;-71
2021/12/19 09:35:35;;;;;;;6.50;2.72;;;;;;;;;;5101354;27;92903;-71
2021/12/19 09:38:02;;;;;;;7.10;3.15;;;;;;;;;;5099587;27;96244;-71
2021/12/19 09:40:34;;;;;;;8.05;3.30;;;;;;;;;;5100600;27;93265;-70
2021/12/19 09:43:02;;;;;;;;;;;;;;;;;;5101619;27;93704;-70
2021/12/19 09:45:29;;;;;;;3.47;2.33;;;;;;;;;;5099896;27;122258;-72
2021/12/19 09:47:56;;;;;;;3.92;2.35;;;;;;;;;;5086178;27;92300;-72
2021/12/19 09:50:22;;;;;;;5.22;2.80;;;;;;;;;;5101195;27;93621;-71
2021/12/19 09:52:51;;;;;;;6.75;3.45;;;;;;;;;;5100549;27;92373;-72
2021/12/19 09:55:21;;;;;;;7.75;2.95;;;;;;;;;;5101842;27;93255;-72
2021/12/19 09:57:48;;;;;;;7.60;3.17;;;;;;;;;;5081328;27;93240;-72
2021/12/19 10:00:15;;;;;;;7.72;4.13;;;;;;;;;;5100739;27;92438;-72
2021/12/19 10:02:42;;;;;;;9.00;3.50;;;;;;;;;;5099334;27;94705;-72
2021/12/19 10:05:16;;;;;;;10.07;4.18;;;;;;;;;;5100719;27;93545;-72
2021/12/19 10:08:02;;;;;;;11.45;4.00;;;;;;;;;;5100769;27;92429;-72
2021/12/19 10:10:46;;;;;;;7.63;4.05;;;;;;;;;;5103882;27;93477;-72
2021/12/19 10:13:13;;;;;;;8.85;4.60;;;;;;;;;;5100271;27;92527;-72
2021/12/19 10:15:41;;;;;;;8.27;4.07;;;;;;;;;;5100372;27;93251;-72
2021/12/19 10:18:12;;;;;;;14.18;4.70;;;;;;;;;;5100182;27;93482;-73
2021/12/19 10:20:41;;;;;;;9.60;4.28;;;;;;;;;;5101010;27;91616;-71
2021/12/19 10:23:09;;;;;;;12.10;4.47;;;;;;;;;;5100764;27;92825;-73
2021/12/19 10:25:36;;;;;;;8.88;4.30;;;;;;;;;;5082503;27;94120;-71
2021/12/19 10:28:04;;;;;;;14.05;5.18;;;;;;;;;;5098885;27;94766;-71
2021/12/19 10:30:32;;;;;;;9.32;4.55;;;;;;;;;;5100033;27;95864;-72
2021/12/19 10:33:03;;;;;;;12.75;4.95;;;;;;;;;;5103358;27;93675;-72
2021/12/19 10:35:31;;;;;;;11.80;4.82;;;;;;;;;;5100382;27;92595;-71
2021/12/19 10:37:58;;;;;;;7.80;4.35;;;;;;;;;;5100151;27;93769;-71
2021/12/19 10:40:25;;;;;;;16.77;3.97;;;;;;;;;;5100655;27;92431;-72
2021/12/19 10:42:59;;;;;;;8.13;4.22;;;;;;;;;;5100058;27;93583;-73
2021/12/19 10:45:42;;;;;;;11.70;4.18;;;;;;;;;;5100639;27;93113;-73
2021/12/19 10:48:09;;;;;;;14.32;4.60;;;;;;;;;;5100029;27;93067;-73
2021/12/19 10:50:40;;;;;;;13.75;4.63;;;;;;;;;;5100339;27;93304;-74
2021/12/19 10:53:06;;;;;;;9.70;4.97;;;;;;;;;;5098119;27;96481;-75
2021/12/19 10:55:33;;;;;;;11.57;5.40;;;;;;;;;;5084566;27;92398;-72
2021/12/19 10:57:59;;;;;;;17.25;4.65;;;;;;;;;;5099857;27;93457;-72
2021/12/19 11:00:27;;;;;;;15.20;4.00;;;;;;;;;;5100135;27;92330;-73
2021/12/19 11:02:53;;;;;;;10.27;4.60;;;;;;;;;;5100100;27;93302;-72
2021/12/19 11:05:34;;;;;;;11.18;4.40;;;;;;;;;;5099848;27;93768;-71
2021/12/19 11:08:01;;;;;;;11.20;4.60;;;;;;;;;;5099464;27;92331;-72
2021/12/19 11:10:29;;;;;;;9.32;4.43;;;;;;;;;;5099676;27;93446;-71
2021/12/19 11:13:09;;;;;;;9.43;3.85;;;;;;;;;;5099075;27;93581;-73
2021/12/19 11:15:37;;;;;;;10.88;4.07;;;;;;;;;;5099708;27;92388;-73
2021/12/19 11:18:03;;;;;;;13.13;4.53;;;;;;;;;;5101640;27;94721;-72
2021/12/19 11:20:30;;;;;;;15.13;4.68;;;;;;;;;;5101700;27;92260;-72
2021/12/19 11:22:56;;;;;;;10.80;4.72;;;;;;;;;;5083283;27;94942;-73
2021/12/19 11:25:23;;;;;;;10.60;4.85;;;;;;;;;;5102276;27;92276;-73
2021/12/19 11:27:49;;;;;;;20.67;4.25;;;;;;;;;;5092594;27;92395;-73
2021/12/19 11:30:18;;;;;;;16.10;5.03;;;;;;;;;;5069610;27;93714;-73
2021/12/19 11:32:54;;;;;;;15.43;5.53;;;;;;;;;;5070995;27;93753;-73
2021/12/19 11:35:22;;;;;;;16.45;4.78;;;;;;;;;;5079508;27;92248;-73
2021/12/19 11:37:54;;;;;;;11.52;5.30;;;;;;;;;;5082378;27;92731;-74
2021/12/19 11:40:21;;;;;;;17.67;5.55;;;;;;;;;;5078786;27;92196;-73
2021/12/19 11:42:48;;;;;;;11.00;4.47;;;;;;;;;;5077188;27;94741;-73
2021/12/19 11:45:27;;;;;;;18.27;5.38;;;;;;;;;;5078467;27;93425;-73
2021/12/19 11:48:03;;;;;;;11.63;6.15;;;;;;;;;;5078627;27;92306;-73
2021/12/19 11:50:31;;;;;;;13.50;5.50;;;;;;;;;;5072031;27;93373;-73
2021/12/19 11:52:59;;;;;;;13.10;5.28;;;;;;;;;;5048264;27;96158;-72
2021/12/19 11:55:34;;;;;;;16.55;5.85;;;;;;;;;;5067929;27;92305;-74
2021/12/19 11:58:16;;;;;;;14.85;5.88;;;;;;;;;;5066439;27;93749;-73
2021/12/19 12:00:47;;;;;;;10.30;5.43;;;;;;;;;;5070942;27;92971;-73
2021/12/19 12:03:13;;;;;;;46.97;29.60;;;;;;;;;;5066676;27;92694;-72
2021/12/19 12:05:47;;;;;;;12.30;5.93;;;;;;;;;;5067245;27;93895;-73
2021/12/19 12:08:15;;;;;;;6.80;4.38;;;;;;;;;;5066761;27;94725;-73
2021/12/19 12:10:58;;;;;;;9.32;4.60;;;;;;;;;;5066732;27;95971;-73
2021/12/19 12:13:27;;;;;;;10.85;4.80;;;;;;;;;;5067028;27;93553;-73
2021/12/19 12:16:02;;;;;;;14.10;4.80;;;;;;;;;;5066447;27;92490;-74
2021/12/19 12:18:35;;;;;;;9.63;4.65;;;;;;;;;;5067259;27;92870;-73
2021/12/19 12:21:29;;;;;;;16.17;4.50;;;;;;;;;;5066888;27;93692;-74
2021/12/19 12:23:59;;;;;;;9.73;3.60;;;;;;;;;;5035482;27;92578;-75
2021/12/19 12:26:28;;;;;;;10.10;4.57;;;;;;;;;;5067779;27;92376;-74
2021/12/19 12:28:55;;;;;;;6.90;4.00;;;;;;;;;;5066139;27;92314;-73
2021/12/19 12:31:24;;;;;;;11.85;3.90;;;;;;;;;;5065026;27;93916;-73
2021/12/19 12:33:51;;;;;;;9.35;3.95;;;;;;;;;;5065722;27;96480;-72
2021/12/19 12:36:17;;;;;;;8.48;3.95;;;;;;;;;;5066192;27;92370;-72
2021/12/19 12:38:46;;;;;;;12.93;4.68;;;;;;;;;;5067665;27;93872;-73
2021/12/19 12:41:27;;;;;;;11.75;4.18;;;;;;;;;;5067889;27;93411;-72
2021/12/19 12:43:55;;;;;;;4.65;3.10;;;;;;;;;;5068075;27;93690;-73
2021/12/19 12:46:23;;;;;;;9.23;3.45;;;;;;;;;;5051574;27;92712;-73
2021/12/19 12:49:03;;;;;;;9.57;3.33;;;;;;;;;;5066535;27;92300;-73
2021/12/19 12:51:33;;;;;;;8.20;3.42;;;;;;;;;;5068071;27;93415;-74
2021/12/19 12:54:25;;;;;;;9.02;3.60;;;;;;;;;;5056315;27;95636;-73
2021/12/19 12:56:52;;;;;;;8.63;3.65;;;;;;;;;;5056685;27;92679;-73
2021/12/19 12:59:20;;;;;;;8.85;3.42;;;;;;;;;;5064500;27;94803;-73
2021/12/19 13:01:49;;;;;;;10.88;4.00;;;;;;;;;;5062385;27;94216;-74
2021/12/19 13:04:15;;;;;;;11.65;3.88;;;;;;;;;;5047292;27;92400;-73
2021/12/19 13:06:59;;;;;;;10.38;3.30;;;;;;;;;;5065003;27;93112;-74
2021/12/19 13:09:27;;;;;;;6.70;3.67;;;;;;;;;;5069267;27;92812;-73
2021/12/19 13:12:06;;;;;;;10.68;3.90;;;;;;;;;;5065791;27;93379;-74
2021/12/19 13:14:37;;;;;;;8.25;3.25;;;;;;;;;;5067194;27;93615;-72
2021/12/19 13:17:05;;;;;;;10.02;3.40;;;;;;;;;;5065460;27;91995;-74
2021/12/19 13:19:32;;;;;;;10.98;3.35;;;;;;;;;;5067341;27;92585;-74
2021/12/19 13:21:58;;;;;;;9.80;3.15;;;;;;;;;;5065439;27;93617;-73
2021/12/19 13:24:25;;;;;;;11.60;3.60;;;;;;;;;;5065300;27;94659;-72
2021/12/19 13:27:03;;;;;;;10.05;3.20;;;;;;;;;;5065437;27;96189;-73
2021/12/19 13:29:30;;;;;;;7.30;3.20;;;;;;;;;;5066087;27;93075;-73
2021/12/19 13:32:14;;;;;;;7.90;3.17;;;;;;;;;;5070122;27;92337;-74
2021/12/19 13:34:41;;;;;;;8.68;3.45;;;;;;;;;;5060063;27;93595;-73
2021/12/19 13:37:07;;;;;;;9.60;3.03;;;;;;;;;;5059952;27;92404;-75
2021/12/19 13:39:34;;;;;;;8.80;3.78;;;;;;;;;;5059473;27;93381;-75
2021/12/19 13:42:07;;;;;;;7.70;3.22;;;;;;;;;;5068884;27;92242;-74
2021/12/19 13:44:34;;;;;;;9.85;3.42;;;;;;;;;;5070506;27;92298;-74
2021/12/19 13:47:10;;;;;;;9.55;3.53;;;;;;;;;;5059896;27;93654;-74
2021/12/19 13:49:36;;;;;;;9.48;3.40;;;;;;;;;;5057742;27;95995;-74
2021/12/19 13:52:03;;;;;;;8.77;3.70;;;;;;;;;;5062808;27;92276;-74
2021/12/19 13:54:31;;;;;;;10.23;3.40;;;;;;;;;;5041544;27;93245;-73
2021/12/19 13:56:58;;;;;;;14.82;4.57;;;;;;;;;;5041340;27;92448;-74
2021/12/19 13:59:24;;;;;;;5.50;3.33;;;;;;;;;;5059625;27;93450;-73
2021/12/19 14:01:51;;;;;;;8.02;3.80;;;;;;;;;;5041265;27;94274;-73
2021/12/19 14:04:19;;;;;;;6.05;3.95;;;;;;;;;;5059503;27;92303;-71
2021/12/19 14:06:46;;;;;;;7.18;3.42;;;;;;;;;;5059733;27;93378;-70
2021/12/19 14:09:15;;;;;;;11.40;3.28;;;;;;;;;;5059155;27;93879;-70
2021/12/19 14:11:44;;;;;;;6.22;3.67;;;;;;;;;;5060336;27;93304;-70
2021/12/19 14:14:24;;;;;;;7.43;3.03;;;;;;;;;;5052982;27;94779;-69
2021/12/19 14:17:14;;;;;;;8.73;2.92;;;;;;;;;;5069422;27;92285;-70
2021/12/19 14:19:42;;;;;;;6.53;3.72;;;;;;;;;;5059759;27;93505;-69
2021/12/19 14:22:15;;;;;;;8.30;3.13;;;;;;;;;;5068698;27;93122;-72
2021/12/19 14:24:51;;;;;;;7.65;3.25;;;;;;;;;;5052472;27;93433;-74
2021/12/19 14:27:27;;;;;;;9.05;2.83;;;;;;;;;;5070070;27;93354;-75
2021/12/19 14:29:54;;;;;;;5.38;2.50;;;;;;;;;;5069393;27;93921;-74
2021/12/19 14:32:22;;;;;;;6.97;2.42;;;;;;;;;;5067996;27;91585;-75
2021/12/19 14:34:50;;;;;;;6.55;2.50;;;;;;;;;;5071118;27;92472;-74
2021/12/19 14:37:23;;;;;;;7.55;2.80;;;;;;;;;;5071017;27;93580;-75
2021/12/19 14:40:14;;;;;;;5.85;2.70;;;;;;;;;;5066811;27;95009;-73
2021/12/19 14:42:43;;;;;;;7.80;2.35;;;;;;;;;;5067547;27;93632;-74
2021/12/19 14:45:16;;;;;;;11.52;3.45;;;;;;;;;;5067985;27;92328;-74
2021/12/19 14:47:44;;;;;;;7.40;3.13;;;;;;;;;;5058598;27;92375;-74
2021/12/19 14:50:14;;;;;;;7.65;2.90;;;;;;;;;;5058642;27;94106;-74
2021/12/19 14:52:54;;;;;;;8.23;3.10;;;;;;;;;;5058432;27;92827;-74
2021/12/19 14:55:24;;;;;;;8.60;3.60;;;;;;;;;;5048110;27;94507;-74
2021/12/19 14:57:50;;;;;;;10.75;3.35;;;;;;;;;;5041235;27;93079;-73
2021/12/19 15:00:16;;;;;;;8.70;3.40;;;;;;;;;;5061832;27;92286;-73
2021/12/19 15:02:43;;;;;;;7.30;3.30;;;;;;;;;;5066699;27;93945;-73
2021/12/19 15:05:12;;;;;;;9.05;3.72;;;;;;;;;;5066925;27;94735;-74
2021/12/19 15:07:43;;;;;;;9.05;3.80;;;;;;;;;;5070081;27;95750;-73
2021/12/19 15:10:10;;;;;;;8.10;4.17;;;;;;;;;;5069433;27;93359;-75
2021/12/19 15:12:37;;;;;;;6.93;3.85;;;;;;;;;;5053306;27;92336;-74
2021/12/19 15:15:03;;;;;;;9.98;4.03;;;;;;;;;;5074628;27;93522;-74
2021/12/19 15:17:30;;;;;;;12.55;3.83;;;;;;;;;;5072625;27;93842;-72
2021/12/19 15:19:56;;;;;;;8.82;3.50;;;;;;;;;;5070160;27;92435;-73
2021/12/19 15:22:23;;;;;;;15.15;4.40;;;;;;;;;;5072024;27;92935;-73
2021/12/19 15:24:49;;;;;;;8.90;3.47;;;;;;;;;;5069355;27;92299;-75
2021/12/19 15:27:18;;;;;;;9.23;3.35;;;;;;;;;;5067446;27;92884;-72
2021/12/19 15:29:45;;;;;;;16.05;4.32;;;;;;;;;;5066266;27;96051;-72
2021/12/19 15:32:14;;;;;;;7.07;3.65;;;;;;;;;;5069367;27;92281;-73
2021/12/19 15:34:42;;;;;;;14.57;4.65;;;;;;;;;;5064183;27;93334;-74
2021/12/19 15:37:09;;;;;;;12.00;4.40;;;;;;;;;;5067629;27;94014;-73
2021/12/19 15:39:35;;;;;;;11.88;3.40;;;;;;;;;;5071980;27;92319;-74